Time,TemperatureF,DewpointF,PressureIn,WindDirection,WindDirectionDegrees,WindSpeedMPH,WindSpeedGustMPH,Humidity,HourlyPrecipIn,Conditions,Clouds,dailyrainin,SoftwareType,DateUTC
2013-08-04 00:14:00,58.5,54.6,29.87,NNE,22,1.7,-999.0,87,-99.99,,,0.00,Acu-Link.com,2013-08-04 07:14:00,
2013-08-04 00:30:00,58.5,54.6,29.87,NNE,22,0.0,-999.0,87,-99.99,,,0.00,Acu-Link.com,2013-08-04 07:30:00,
2013-08-04 00:45:00,58.3,54.4,29.87,NNE,22,2.7,-999.0,87,-99.99,,,0.00,Acu-Link.com,2013-08-04 07:45:00,
2013-08-04 01:00:00,58.1,54.6,29.87,NNE,22,2.2,-999.0,88,-99.99,,,0.00,Acu-Link.com,2013-08-04 08:00:00,
2013-08-04 01:15:00,58.3,54.8,29.87,NNE,22,0.0,-999.0,88,-99.99,,,0.00,Acu-Link.com,2013-08-04 08:15:00,
2013-08-04 01:30:00,58.6,54.7,29.87,NNE,22,0.0,-999.0,87,-99.99,,,0.00,Acu-Link.com,2013-08-04 08:30:00,
2013-08-04 01:46:00,58.6,54.7,29.87,NNE,22,0.0,-999.0,87,-99.99,,,0.00,Acu-Link.com,2013-08-04 08:46:00,
2013-08-04 02:01:00,58.1,54.6,29.88,NNE,22,2.7,-999.0,88,-99.99,,,0.00,Acu-Link.com,2013-08-04 09:01:00,
2013-08-04 02:16:00,58.5,55.0,29.87,NNE,22,0.0,-999.0,88,-99.99,,,0.00,Acu-Link.com,2013-08-04 09:16:00,
2013-08-04 02:46:00,58.6,53.8,29.88,NNE,22,1.7,-999.0,84,-99.99,,,0.00,Acu-Link.com,2013-08-04 09:46:00,
2013-08-04 03:02:00,58.6,53.8,29.88,North,0,0.0,-999.0,84,-99.99,,,0.00,Acu-Link.com,2013-08-04 10:02:00,
2013-08-04 03:17:00,58.6,53.5,29.88,NNE,22,3.2,-999.0,83,-99.99,,,0.00,Acu-Link.com,2013-08-04 10:17:00,
2013-08-04 03:32:00,58.5,53.4,29.89,NNW,337,1.7,-999.0,83,-99.99,,,0.00,Acu-Link.com,2013-08-04 10:32:00,
2013-08-04 03:47:00,58.5,53.4,29.88,NNW,337,2.7,-999.0,83,-99.99,,,0.00,Acu-Link.com,2013-08-04 10:47:00,
2013-08-04 04:03:00,58.5,53.7,29.88,NNW,337,0.0,-999.0,84,-99.99,,,0.00,Acu-Link.com,2013-08-04 11:03:00,
2013-08-04 04:18:00,58.8,54.0,29.89,NNW,337,0.0,-999.0,84,-99.99,,,0.00,Acu-Link.com,2013-08-04 11:18:00,
2013-08-04 04:34:00,58.8,54.3,29.89,NNW,337,2.7,-999.0,85,-99.99,,,0.00,Acu-Link.com,2013-08-04 11:34:00,
2013-08-04 04:49:00,58.6,53.8,29.90,NNW,337,2.2,-999.0,84,-99.99,,,0.00,Acu-Link.com,2013-08-04 11:49:00,
2013-08-04 05:04:00,58.6,55.4,29.90,NNW,337,1.7,-999.0,89,-99.99,,,0.00,Acu-Link.com,2013-08-04 12:04:00,
2013-08-04 05:19:00,58.6,55.4,29.90,NNW,337,0.0,-999.0,89,-99.99,,,0.00,Acu-Link.com,2013-08-04 12:19:00,
2013-08-04 05:35:00,58.5,53.7,29.90,NNW,337,0.0,-999.0,84,-99.99,,,0.00,Acu-Link.com,2013-08-04 12:35:00,
2013-08-04 05:50:00,58.5,53.4,29.91,NNW,337,1.1,-999.0,83,-99.99,,,0.00,Acu-Link.com,2013-08-04 12:50:00,
2013-08-04 06:05:00,58.6,53.5,29.90,NNW,337,1.7,-999.0,83,-99.99,,,0.00,Acu-Link.com,2013-08-04 13:05:00,
2013-08-04 06:21:00,58.6,53.5,29.91,NNW,337,0.0,-999.0,83,-99.99,,,0.00,Acu-Link.com,2013-08-04 13:21:00,
2013-08-04 06:51:00,58.8,53.6,29.92,NNW,337,0.0,-999.0,83,-99.99,,,0.00,Acu-Link.com,2013-08-04 13:51:00,
2013-08-04 07:07:00,58.6,55.1,29.91,NNW,337,0.0,-999.0,88,-99.99,,,0.00,Acu-Link.com,2013-08-04 14:07:00,
2013-08-04 07:22:00,58.6,55.4,29.91,NNW,337,0.0,-999.0,89,-99.99,,,0.00,Acu-Link.com,2013-08-04 14:22:00,
2013-08-04 07:37:00,59.0,55.4,29.91,NNW,337,0.0,-999.0,88,-99.99,,,0.00,Acu-Link.com,2013-08-04 14:37:00,
2013-08-04 07:53:00,58.8,55.3,29.92,NNW,337,0.0,-999.0,88,-99.99,,,0.00,Acu-Link.com,2013-08-04 14:53:00,
2013-08-04 08:08:00,59.9,55.7,29.92,NNW,337,0.0,-999.0,86,-99.99,,,0.00,Acu-Link.com,2013-08-04 15:08:00,
2013-08-04 08:23:00,59.7,55.5,29.92,NNW,337,0.0,-999.0,86,-99.99,,,0.00,Acu-Link.com,2013-08-04 15:23:00,
2013-08-04 08:38:00,60.6,55.4,29.93,NNW,337,0.0,-999.0,83,-99.99,,,0.00,Acu-Link.com,2013-08-04 15:38:00,
2013-08-04 08:54:00,61.0,55.5,29.93,ESE,112,4.2,-999.0,82,-99.99,,,0.00,Acu-Link.com,2013-08-04 15:54:00,
2013-08-04 09:09:00,61.2,55.3,29.93,ESE,112,3.7,-999.0,81,-99.99,,,0.00,Acu-Link.com,2013-08-04 16:09:00,
2013-08-04 09:24:00,62.8,55.8,29.93,East,90,2.2,-999.0,78,-99.99,,,0.00,Acu-Link.com,2013-08-04 16:24:00,
2013-08-04 09:40:00,64.2,56.5,29.92,North,0,1.1,-999.0,76,-99.99,,,0.00,Acu-Link.com,2013-08-04 16:40:00,
2013-08-04 09:55:00,63.9,56.2,29.93,NE,45,1.7,-999.0,76,-99.99,,,0.00,Acu-Link.com,2013-08-04 16:55:00,
2013-08-04 10:10:00,68.9,57.5,29.94,North,0,2.2,-999.0,67,-99.99,,,0.00,Acu-Link.com,2013-08-04 17:10:00,
2013-08-04 10:26:00,64.8,56.3,29.93,North,0,4.2,-999.0,74,-99.99,,,0.00,Acu-Link.com,2013-08-04 17:26:00,
2013-08-04 10:41:00,65.7,56.4,29.93,North,0,6.8,-999.0,72,-99.99,,,0.00,Acu-Link.com,2013-08-04 17:41:00,
2013-08-04 10:56:00,66.6,56.9,29.93,North,0,2.2,-999.0,71,-99.99,,,0.00,Acu-Link.com,2013-08-04 17:56:00,
2013-08-04 11:11:00,65.7,56.4,29.92,NNW,337,2.2,-999.0,72,-99.99,,,0.00,Acu-Link.com,2013-08-04 18:11:00,
2013-08-04 11:27:00,68.2,57.2,29.92,NNW,337,3.2,-999.0,68,-99.99,,,0.00,Acu-Link.com,2013-08-04 18:27:00,
2013-08-04 11:42:00,68.7,57.3,29.93,NNE,22,4.2,-999.0,67,-99.99,,,0.00,Acu-Link.com,2013-08-04 18:42:00,
2013-08-04 11:57:00,70.2,57.4,29.92,NE,45,6.3,-999.0,64,-99.99,,,0.00,Acu-Link.com,2013-08-04 18:57:00,
2013-08-04 12:12:00,72.0,58.3,29.92,North,0,6.8,-999.0,62,-99.99,,,0.00,Acu-Link.com,2013-08-04 19:12:00,
2013-08-04 12:27:00,72.3,57.6,29.91,North,0,3.2,-999.0,60,-99.99,,,0.00,Acu-Link.com,2013-08-04 19:27:00,
2013-08-04 12:42:00,70.0,57.3,29.91,NNW,337,7.8,-999.0,64,-99.99,,,0.00,Acu-Link.com,2013-08-04 19:42:00,
2013-08-04 12:58:00,73.4,58.2,29.90,NE,45,4.7,-999.0,59,-99.99,,,0.00,Acu-Link.com,2013-08-04 19:58:00,
2013-08-04 13:13:00,70.3,57.5,29.90,NNW,337,4.7,-999.0,64,-99.99,,,0.00,Acu-Link.com,2013-08-04 20:13:00,
2013-08-04 13:28:00,73.4,58.2,29.89,NNW,337,3.7,-999.0,59,-99.99,,,0.00,Acu-Link.com,2013-08-04 20:28:00,
2013-08-04 13:43:00,73.2,58.0,29.89,North,0,2.7,-999.0,59,-99.99,,,0.00,Acu-Link.com,2013-08-04 20:43:00,
2013-08-04 13:58:00,74.3,58.6,29.89,NNE,22,4.2,-999.0,58,-99.99,,,0.00,Acu-Link.com,2013-08-04 20:58:00,
2013-08-04 14:13:00,72.3,57.6,29.88,NNE,22,5.3,-999.0,60,-99.99,,,0.00,Acu-Link.com,2013-08-04 21:13:00,
2013-08-04 14:29:00,75.4,58.6,29.87,NNE,22,1.7,-999.0,56,-99.99,,,0.00,Acu-Link.com,2013-08-04 21:29:00,
2013-08-04 14:44:00,75.4,58.1,29.88,NE,45,3.7,-999.0,55,-99.99,,,0.00,Acu-Link.com,2013-08-04 21:44:00,
2013-08-04 14:59:00,75.4,58.1,29.86,North,0,5.8,-999.0,55,-99.99,,,0.00,Acu-Link.com,2013-08-04 21:59:00,
2013-08-04 15:14:00,74.5,57.8,29.85,North,0,1.7,-999.0,56,-99.99,,,0.00,Acu-Link.com,2013-08-04 22:14:00,
2013-08-04 15:29:00,75.6,58.3,29.85,North,0,7.3,-999.0,55,-99.99,,,0.00,Acu-Link.com,2013-08-04 22:29:00,
2013-08-04 15:44:00,75.2,57.9,29.85,NNW,337,5.3,-999.0,55,-99.99,,,0.00,Acu-Link.com,2013-08-04 22:44:00,
2013-08-04 15:59:00,75.6,58.3,29.84,NNW,337,5.3,-999.0,55,-99.99,,,0.00,Acu-Link.com,2013-08-04 22:59:00,
2013-08-04 16:15:00,76.1,58.2,29.83,NNE,22,2.7,-999.0,54,-99.99,,,0.00,Acu-Link.com,2013-08-04 23:15:00,
2013-08-04 16:30:00,77.2,57.7,29.82,NNE,22,4.7,-999.0,51,-99.99,,,0.00,Acu-Link.com,2013-08-04 23:30:00,
2013-08-04 16:45:00,78.1,57.9,29.81,North,0,2.2,-999.0,50,-99.99,,,0.00,Acu-Link.com,2013-08-04 23:45:00,
2013-08-04 17:00:00,75.9,57.5,29.81,ENE,67,1.7,-999.0,53,-99.99,,,0.00,Acu-Link.com,2013-08-05 00:00:00,
2013-08-04 17:16:00,75.2,57.4,29.82,NNE,22,2.7,-999.0,54,-99.99,,,0.00,Acu-Link.com,2013-08-05 00:16:00,
2013-08-04 17:31:00,75.0,56.7,29.81,NE,45,0.0,-999.0,53,-99.99,,,0.00,Acu-Link.com,2013-08-05 00:31:00,
2013-08-04 17:46:00,75.2,56.3,29.79,NE,45,2.2,-999.0,52,-99.99,,,0.00,Acu-Link.com,2013-08-05 00:46:00,
2013-08-04 18:02:00,75.4,56.5,29.79,ENE,67,2.7,-999.0,52,-99.99,,,0.00,Acu-Link.com,2013-08-05 01:02:00,
2013-08-04 18:17:00,77.5,55.7,29.79,West,270,4.7,-999.0,47,-99.99,,,0.00,Acu-Link.com,2013-08-05 01:17:00,
2013-08-04 18:32:00,75.0,55.6,29.79,NE,45,2.7,-999.0,51,-99.99,,,0.00,Acu-Link.com,2013-08-05 01:32:00,
2013-08-04 18:48:00,73.8,55.6,29.79,SE,135,3.2,-999.0,53,-99.99,,,0.00,Acu-Link.com,2013-08-05 01:48:00,
2013-08-04 19:03:00,71.1,55.1,29.80,WSW,247,2.7,-999.0,57,-99.99,,,0.00,Acu-Link.com,2013-08-05 02:03:00,
2013-08-04 19:18:00,67.3,54.3,29.81,ESE,112,4.7,-999.0,63,-99.99,,,0.00,Acu-Link.com,2013-08-05 02:18:00,
2013-08-04 19:33:00,66.7,54.1,29.81,SE,135,2.7,-999.0,64,-99.99,,,0.00,Acu-Link.com,2013-08-05 02:33:00,
2013-08-04 19:49:00,64.4,53.6,29.82,NW,315,0.0,-999.0,68,-99.99,,,0.00,Acu-Link.com,2013-08-05 02:49:00,
2013-08-04 20:04:00,62.8,53.6,29.82,NW,315,0.0,-999.0,72,-99.99,,,0.00,Acu-Link.com,2013-08-05 03:04:00,
2013-08-04 20:19:00,61.3,53.3,29.83,NW,315,0.0,-999.0,75,-99.99,,,0.00,Acu-Link.com,2013-08-05 03:19:00,
2013-08-04 20:35:00,60.6,53.0,29.84,NW,315,0.0,-999.0,76,-99.99,,,0.00,Acu-Link.com,2013-08-05 03:35:00,
2013-08-04 20:50:00,59.5,53.0,29.84,NW,315,0.0,-999.0,79,-99.99,,,0.00,Acu-Link.com,2013-08-05 03:50:00,
2013-08-04 21:05:00,59.0,53.2,29.86,NW,315,3.7,-999.0,81,-99.99,,,0.00,Acu-Link.com,2013-08-05 04:05:00,
2013-08-04 21:21:00,58.5,53.0,29.87,NW,315,2.7,-999.0,82,-99.99,,,0.00,Acu-Link.com,2013-08-05 04:21:00,
2013-08-04 21:36:00,58.1,53.0,29.87,NW,315,1.7,-999.0,83,-99.99,,,0.00,Acu-Link.com,2013-08-05 04:36:00,
2013-08-04 21:51:00,58.3,52.5,29.88,NW,315,0.0,-999.0,81,-99.99,,,0.00,Acu-Link.com,2013-08-05 04:51:00,
2013-08-04 22:21:00,57.2,52.4,29.89,NW,315,1.7,-999.0,84,-99.99,,,0.00,Acu-Link.com,2013-08-05 05:21:00,
2013-08-04 22:37:00,57.0,52.2,29.90,NW,315,2.7,-999.0,84,-99.99,,,0.00,Acu-Link.com,2013-08-05 05:37:00,
2013-08-04 22:52:00,57.0,51.9,29.90,NW,315,2.7,-999.0,83,-99.99,,,0.00,Acu-Link.com,2013-08-05 05:52:00,
2013-08-04 23:07:00,57.0,51.9,29.90,NW,315,0.0,-999.0,83,-99.99,,,0.00,Acu-Link.com,2013-08-05 06:07:00,
2013-08-04 23:23:00,57.9,52.4,29.89,NW,315,0.0,-999.0,82,-99.99,,,0.00,Acu-Link.com,2013-08-05 06:23:00,
2013-08-04 23:38:00,58.6,53.1,29.90,NW,315,0.0,-999.0,82,-99.99,,,0.00,Acu-Link.com,2013-08-05 06:38:00,
2013-08-04 23:53:00,59.0,53.5,29.90,NW,315,0.0,-999.0,82,-99.99,,,0.00,Acu-Link.com,2013-08-05 06:53:00,